map of RPMR home
Great Circle Mapper logo
RPMR - Airport
Location
City:  Tambler, Mindanao Island, Philippines
Near (Alt.):General Santos Intl
ICAO:RPMR

Details
Type:Airport (Aerodrome, Airfield)
Use:Public/Civil, International (customs port of entry)
Latitude:603'29"N (6.058003)
Longitude:12505'46"E (125.096033)
Datum:WGS 1984
Elevation:505 ft (154 m)
Runways:1
Longest:10587 × 148 ft (3227 × 45 m), paved

Time
Time Zone:UTC+8
Local Time:

Weather
TAF:RPMR 300500Z 3006/3106 12004KT 9999 FEW018 SCT250
TEMPO 3006/ 3012 18006KT FEW018CB SCT080

Related Locations
Nearby:
Farthest:SNRB: 12290 mi / 19778 km
Itaituba [Fazenda Rosa de Maio], BR

Find:

   beyond  
but within

Other Information
Maps:
NOTAMs:
Links:
Sources:

  
flag of Philippines   

Sectional Chart

Flight Planning
at skyvector.com

Satellite Image

Google Maps Satellite View

 

Copyright © 2004-2014 Karl L. Swartz. All rights reserved.
The Great Circle Mapper name and logo are trademarks of the Great Circle Mapper.
All other trademarks mentioned herein belong to their respective owners.
Please see credits for attibutions and further copyright information.

  Follow gcmap on Facebook Follow gcmap on Twitter

hCard Microformat

Geo Microformat